createdAt,value
2023-11-06T00:00:58.800Z,2.60
2023-11-06T00:03:29.078Z,3.78
2023-11-06T00:05:59.412Z,3.30
2023-11-06T00:08:30.949Z,3.58
2023-11-06T00:11:04.003Z,3.60
2023-11-06T00:13:34.353Z,4.47
2023-11-06T00:16:12.811Z,3.17
2023-11-06T00:18:49.886Z,3.20
2023-11-06T00:21:20.860Z,3.63
2023-11-06T00:23:51.267Z,3.40
2023-11-06T00:26:24.364Z,2.78
2023-11-06T00:28:55.433Z,3.05
2023-11-06T00:31:26.152Z,3.22
2023-11-06T00:33:56.974Z,3.25
2023-11-06T00:36:27.698Z,3.78
2023-11-06T00:38:58.085Z,3.10
2023-11-06T00:41:31.097Z,5.28
2023-11-06T00:44:01.351Z,2.67
2023-11-06T00:46:31.551Z,4.33
2023-11-06T00:49:02.606Z,2.90
2023-11-06T00:54:02.894Z,2.85
2023-11-06T00:56:35.759Z,4.00
2023-11-06T00:59:06.063Z,2.88
2023-11-06T01:01:36.516Z,3.13
2023-11-06T01:04:10.877Z,3.05
2023-11-06T01:06:41.373Z,2.97
2023-11-06T01:09:12.760Z,3.58
2023-11-06T01:11:50.224Z,3.10
2023-11-06T01:14:21.062Z,2.78
2023-11-06T01:16:51.811Z,4.20
2023-11-06T01:19:22.124Z,2.90
2023-11-06T01:21:52.444Z,2.43
2023-11-06T01:24:22.802Z,3.10
2023-11-06T01:26:55.730Z,3.13
2023-11-06T01:29:26.049Z,3.03
2023-11-06T01:31:56.362Z,4.17
2023-11-06T01:34:27.016Z,3.00
2023-11-06T01:36:57.251Z,2.75
2023-11-06T01:39:27.373Z,4.17
2023-11-06T01:42:00.185Z,2.25
2023-11-06T01:44:30.344Z,3.03
2023-11-06T01:47:00.818Z,2.55
2023-11-06T01:49:31.101Z,2.42
2023-11-06T01:52:01.959Z,2.70
2023-11-06T01:54:32.502Z,2.25
2023-11-06T01:57:07.103Z,2.42
2023-11-06T01:59:37.712Z,2.40
2023-11-06T02:02:08.155Z,2.60
2023-11-06T02:04:40.325Z,2.70
2023-11-06T02:07:10.641Z,3.60
2023-11-06T02:09:41.859Z,2.67
2023-11-06T02:12:15.074Z,3.00
2023-11-06T02:14:58.926Z,3.20
2023-11-06T02:17:29.653Z,4.50
2023-11-06T02:20:00.617Z,3.20
2023-11-06T02:22:31.749Z,4.20
2023-11-06T02:27:34.721Z,3.25
2023-11-06T02:30:05.718Z,3.17
2023-11-06T02:35:09.442Z,3.15
2023-11-06T02:37:39.908Z,3.33
2023-11-06T02:40:14.500Z,3.43
2023-11-06T02:42:44.845Z,3.15
2023-11-06T02:45:15.009Z,3.60
2023-11-06T02:47:45.301Z,3.35
2023-11-06T02:50:16.320Z,3.20
2023-11-06T02:55:19.505Z,3.10
2023-11-06T02:57:51.108Z,3.72
2023-11-06T03:00:22.690Z,3.47
2023-11-06T03:02:54.930Z,4.40
2023-11-06T03:05:25.273Z,3.65
2023-11-06T03:07:55.763Z,3.72
2023-11-06T03:10:28.575Z,5.03
2023-11-06T03:12:58.732Z,4.20
2023-11-06T03:15:28.943Z,3.67
2023-11-06T03:17:59.154Z,4.00
2023-11-06T03:20:29.377Z,5.18
2023-11-06T03:22:59.628Z,4.47
2023-11-06T03:25:32.531Z,5.93
2023-11-06T03:28:02.709Z,4.38
2023-11-06T03:30:32.895Z,4.30
2023-11-06T03:33:03.344Z,5.10
2023-11-06T03:35:33.528Z,4.00
2023-11-06T03:38:04.285Z,4.72
2023-11-06T03:40:37.147Z,4.43
2023-11-06T03:43:07.326Z,4.97
2023-11-06T03:45:37.486Z,4.47
2023-11-06T03:48:08.723Z,5.57
2023-11-06T03:50:44.174Z,5.40
2023-11-06T03:53:14.917Z,4.60
2023-11-06T03:55:48.092Z,6.05
2023-11-06T03:58:18.365Z,5.10
2023-11-06T04:00:48.506Z,5.23
2023-11-06T04:03:18.748Z,5.43
2023-11-06T04:05:49.068Z,5.43
2023-11-06T04:08:19.411Z,5.05
2023-11-06T04:10:52.697Z,4.97
2023-11-06T04:13:22.862Z,5.28
2023-11-06T04:15:53.085Z,6.20
2023-11-06T04:18:23.634Z,6.40
2023-11-06T04:20:54.251Z,5.32
2023-11-06T04:23:24.411Z,5.80
2023-11-06T04:25:57.351Z,6.07
2023-11-06T04:28:28.736Z,5.80
2023-11-06T04:30:58.905Z,6.03
2023-11-06T04:33:29.194Z,5.90
2023-11-06T04:36:00.765Z,6.53
2023-11-06T04:38:31.153Z,6.22
2023-11-06T04:41:04.347Z,6.28
2023-11-06T04:43:34.616Z,5.65
2023-11-06T04:46:04.856Z,6.57
2023-11-06T04:48:35.189Z,6.03
2023-11-06T04:51:05.593Z,6.13
2023-11-06T04:53:39.385Z,5.30
2023-11-06T04:56:13.018Z,6.80
2023-11-06T04:58:43.240Z,5.63
2023-11-06T05:01:13.439Z,6.07
2023-11-06T05:03:44.317Z,6.28
2023-11-06T05:06:14.569Z,5.63
2023-11-06T05:08:44.730Z,6.30
2023-11-06T05:11:17.582Z,5.97
2023-11-06T05:13:49.299Z,5.82
2023-11-06T05:16:19.485Z,5.57
2023-11-06T05:18:49.699Z,6.37
2023-11-06T05:21:26.784Z,7.77
2023-11-06T05:23:57.083Z,5.68
2023-11-06T05:26:29.906Z,7.80
2023-11-06T05:29:01.416Z,7.00
2023-11-06T05:31:31.677Z,6.35
2023-11-06T05:34:02.183Z,7.00
2023-11-06T05:36:32.429Z,7.72
2023-11-06T05:39:02.667Z,7.23
2023-11-06T05:41:35.931Z,8.05
2023-11-06T05:44:06.328Z,7.78
2023-11-06T05:46:36.455Z,9.23
2023-11-06T05:49:06.671Z,8.57
2023-11-06T05:51:36.959Z,7.47
2023-11-06T05:54:07.574Z,6.93
2023-11-06T05:56:40.502Z,6.40
2023-11-06T05:59:10.925Z,7.20
2023-11-06T06:01:41.215Z,6.95
2023-11-06T06:04:11.938Z,7.77
2023-11-06T06:06:42.184Z,7.13
2023-11-06T06:09:13.130Z,10.63
2023-11-06T06:11:46.963Z,7.97
2023-11-06T06:14:17.262Z,7.15
2023-11-06T06:16:50.760Z,6.45
2023-11-06T06:19:21.122Z,6.78
2023-11-06T06:21:51.293Z,6.63
2023-11-06T06:24:21.516Z,7.30
2023-11-06T06:26:54.289Z,15.13
2023-11-06T06:29:24.453Z,9.18
2023-11-06T06:31:55.101Z,9.13
2023-11-06T06:34:25.829Z,11.00
2023-11-06T06:36:56.279Z,6.95
2023-11-06T06:39:26.559Z,6.80
2023-11-06T06:41:59.297Z,8.23
2023-11-06T06:44:29.618Z,7.60
2023-11-06T06:47:00.288Z,6.43
2023-11-06T06:49:30.525Z,6.15
2023-11-06T06:52:00.824Z,7.03
2023-11-06T06:54:31.024Z,7.40
2023-11-06T06:57:04.707Z,15.40
2023-11-06T06:59:35.709Z,8.02
2023-11-06T07:02:06.154Z,15.20
2023-11-06T07:04:38.777Z,13.95
2023-11-06T07:07:09.939Z,10.00
2023-11-06T07:09:40.353Z,9.48
2023-11-06T07:12:15.534Z,9.48
2023-11-06T07:14:46.068Z,13.38
2023-11-06T07:17:16.324Z,13.60
2023-11-06T07:19:46.611Z,10.37
2023-11-06T07:22:17.414Z,10.60
2023-11-06T07:24:47.880Z,17.90
2023-11-06T07:27:22.724Z,16.70
2023-11-06T07:29:53.526Z,12.20
2023-11-06T07:32:25.683Z,11.68
2023-11-06T07:34:57.302Z,11.52
2023-11-06T07:37:28.170Z,9.77
2023-11-06T07:39:58.980Z,8.32
2023-11-06T07:42:31.948Z,10.23
2023-11-06T07:45:02.847Z,11.43
2023-11-06T07:50:04.458Z,9.18
2023-11-06T07:52:34.866Z,8.07
2023-11-06T07:55:08.029Z,8.23
2023-11-06T07:57:40.993Z,5.35
2023-11-06T08:00:14.784Z,6.35
2023-11-06T08:02:45.749Z,6.65
2023-11-06T08:05:16.819Z,6.50
2023-11-06T08:07:47.713Z,5.45
2023-11-06T08:10:18.520Z,5.57
2023-11-06T08:12:53.975Z,6.63
2023-11-06T08:15:24.287Z,7.38
2023-11-06T08:17:54.697Z,9.40
2023-11-06T08:20:25.171Z,6.18
2023-11-06T08:22:55.521Z,6.63
2023-11-06T08:25:27.958Z,6.28
2023-11-06T08:28:01.137Z,5.20
2023-11-06T08:30:31.660Z,7.72
2023-11-06T08:33:02.630Z,5.82
2023-11-06T08:35:33.305Z,5.03
2023-11-06T08:38:07.676Z,8.50
2023-11-06T08:40:38.033Z,6.63
2023-11-06T08:43:12.234Z,6.10
2023-11-06T08:45:43.582Z,5.55
2023-11-06T08:48:13.937Z,6.45
2023-11-06T08:50:44.294Z,5.25
2023-11-06T08:53:14.728Z,4.50
2023-11-06T08:55:45.179Z,6.13
2023-11-06T08:58:19.652Z,4.13
2023-11-06T09:00:51.047Z,7.72
2023-11-06T09:03:21.928Z,4.18
2023-11-06T09:05:53.717Z,4.70
2023-11-06T09:08:24.541Z,4.07
2023-11-06T09:10:55.231Z,4.65
2023-11-06T09:13:29.857Z,6.13
2023-11-06T09:16:00.301Z,5.45
2023-11-06T09:18:30.768Z,5.95
2023-11-06T09:21:01.442Z,4.45
2023-11-06T09:23:32.305Z,4.85
2023-11-06T09:26:03.896Z,4.10
2023-11-06T09:28:37.064Z,4.15
2023-11-06T09:31:08.659Z,5.47
2023-11-06T09:33:39.475Z,3.40
2023-11-06T09:36:13.334Z,4.03
2023-11-06T09:38:43.960Z,4.05
2023-11-06T09:41:15.823Z,3.92
2023-11-06T09:43:49.501Z,3.85
2023-11-06T09:46:20.251Z,4.95
2023-11-06T09:48:52.319Z,4.20
2023-11-06T09:51:29.260Z,3.60
2023-11-06T09:54:02.450Z,3.97
2023-11-06T09:56:33.691Z,3.70
2023-11-06T09:59:09.352Z,4.05
2023-11-06T10:01:40.614Z,3.30
2023-11-06T10:04:11.660Z,3.75
2023-11-06T10:09:25.506Z,3.20
2023-11-06T10:12:00.914Z,3.72
2023-11-06T10:14:48.758Z,3.45
2023-11-06T10:17:19.918Z,2.97
2023-11-06T10:20:11.368Z,3.22
2023-11-06T10:22:42.062Z,3.60
2023-11-06T10:25:13.041Z,3.05
2023-11-06T10:27:44.462Z,2.88
2023-11-06T10:30:18.148Z,3.10
2023-11-06T10:32:49.042Z,2.80
2023-11-06T10:35:21.643Z,3.50
2023-11-06T10:37:52.727Z,3.17
2023-11-06T10:42:54.737Z,3.45
2023-11-06T10:45:31.361Z,2.97
2023-11-06T10:48:08.655Z,2.83
2023-11-06T10:50:41.197Z,2.47
2023-11-06T10:53:12.325Z,3.13
2023-11-06T10:58:18.581Z,3.00
2023-11-06T11:00:52.121Z,3.30
2023-11-06T11:03:24.581Z,2.40
2023-11-06T11:05:57.904Z,2.42
2023-11-06T11:08:29.536Z,3.10
2023-11-06T11:11:00.740Z,2.25
2023-11-06T11:13:31.606Z,2.63
2023-11-06T11:16:42.228Z,2.10
2023-11-06T11:19:28.747Z,2.43
2023-11-06T11:22:10.515Z,4.32
2023-11-06T11:24:57.684Z,2.25
2023-11-06T11:27:29.324Z,2.42
2023-11-06T11:30:12.773Z,2.67
2023-11-06T11:32:58.150Z,1.88
2023-11-06T11:36:04.018Z,1.75
2023-11-06T11:38:39.209Z,3.05
2023-11-06T11:41:14.051Z,1.73
2023-11-06T11:43:53.712Z,1.63
2023-11-06T11:46:59.024Z,1.73
2023-11-06T11:49:50.888Z,2.83
2023-11-06T11:52:47.124Z,1.88
2023-11-06T11:55:33.401Z,2.70
2023-11-06T11:58:09.379Z,1.75
2023-11-06T12:00:41.737Z,1.63
2023-11-06T12:03:15.152Z,2.60
2023-11-06T12:05:58.400Z,2.38
2023-11-06T12:08:30.903Z,1.60
2023-11-06T12:11:11.358Z,2.17
2023-11-06T12:13:42.058Z,2.87
2023-11-06T12:16:14.853Z,1.42
2023-11-06T12:18:47.713Z,1.67
2023-11-06T12:21:21.516Z,1.52
2023-11-06T12:23:52.004Z,1.48
2023-11-06T12:26:24.113Z,1.27
2023-11-06T12:28:55.417Z,1.83
2023-11-06T12:31:26.721Z,3.45
2023-11-06T12:33:57.603Z,1.40
2023-11-06T12:36:37.054Z,1.30
2023-11-06T12:39:28.123Z,1.35
2023-11-06T12:42:02.242Z,1.30
2023-11-06T12:44:40.588Z,1.40
2023-11-06T12:47:12.698Z,1.27
2023-11-06T12:49:50.154Z,1.20
2023-11-06T12:52:28.612Z,1.20
2023-11-06T12:54:59.333Z,1.15
2023-11-06T12:57:30.753Z,1.30
2023-11-06T13:00:01.902Z,3.28
2023-11-06T13:05:08.904Z,1.88
2023-11-06T13:07:50.080Z,1.10
2023-11-06T13:10:20.675Z,2.03
2023-11-06T13:12:51.428Z,1.77
2023-11-06T13:15:22.455Z,1.30
2023-11-06T13:17:56.489Z,1.45
2023-11-06T13:20:34.510Z,0.98
2023-11-06T13:23:07.764Z,2.20
2023-11-06T13:25:38.321Z,3.28
2023-11-06T13:28:09.455Z,1.50
2023-11-06T13:33:11.415Z,2.00
2023-11-06T13:35:43.869Z,4.68
2023-11-06T13:38:18.268Z,2.05
2023-11-06T13:40:48.725Z,2.33
2023-11-06T13:43:20.396Z,0.93
2023-11-06T13:45:50.727Z,4.10
2023-11-06T13:48:21.976Z,11.65
2023-11-06T13:50:59.301Z,3.00
2023-11-06T13:53:34.484Z,1.52
2023-11-06T13:56:19.747Z,4.25
2023-11-06T13:58:52.939Z,3.22
2023-11-06T14:01:35.152Z,1.15
2023-11-06T14:04:06.984Z,0.90
2023-11-06T14:06:37.966Z,1.13
2023-11-06T14:09:31.228Z,1.98
2023-11-06T14:12:01.604Z,1.17
2023-11-06T14:14:32.032Z,1.20
2023-11-06T14:17:02.628Z,1.25
2023-11-06T14:19:33.029Z,1.75
2023-11-06T14:22:08.880Z,1.27
2023-11-06T14:24:42.286Z,0.88
2023-11-06T14:27:13.150Z,1.10
2023-11-06T14:29:44.708Z,0.93
2023-11-06T14:32:15.413Z,2.63
2023-11-06T14:34:49.251Z,1.25
2023-11-06T14:37:20.053Z,3.22
2023-11-06T14:39:53.416Z,1.42
2023-11-06T14:42:24.078Z,2.33
2023-11-06T14:44:54.648Z,1.30
2023-11-06T14:47:25.779Z,1.98
2023-11-06T14:49:56.717Z,3.25
2023-11-06T14:52:27.171Z,0.77
2023-11-06T14:55:00.281Z,2.78
2023-11-06T14:57:30.890Z,1.45
2023-11-06T15:00:02.653Z,1.20
2023-11-06T15:02:33.512Z,1.83
2023-11-06T15:05:06.670Z,1.20
2023-11-06T15:07:37.536Z,0.82
2023-11-06T15:10:14.195Z,1.45
2023-11-06T15:12:46.417Z,1.17
2023-11-06T15:15:19.799Z,2.03
2023-11-06T15:17:50.814Z,0.95
2023-11-06T15:22:55.160Z,1.25
2023-11-06T15:25:30.346Z,1.35
2023-11-06T15:28:01.323Z,1.10
2023-11-06T15:30:32.708Z,1.35
2023-11-06T15:33:07.650Z,1.48
2023-11-06T15:35:38.868Z,3.58
2023-11-06T15:38:11.090Z,1.10
2023-11-06T15:40:46.606Z,1.30
2023-11-06T15:43:18.865Z,3.05
2023-11-06T15:45:50.217Z,2.60
2023-11-06T15:48:21.026Z,1.38
2023-11-06T15:50:54.130Z,10.52
2023-11-06T15:53:24.764Z,4.35
2023-11-06T15:55:58.196Z,1.67
2023-11-06T15:58:29.602Z,7.43
2023-11-06T16:01:00.032Z,9.20
2023-11-06T16:03:31.710Z,10.52
2023-11-06T16:06:06.296Z,11.48
2023-11-06T16:08:40.717Z,5.05
2023-11-06T16:11:19.693Z,5.03
2023-11-06T16:13:50.869Z,4.78
2023-11-06T16:18:51.994Z,11.90
2023-11-06T16:21:22.700Z,5.03
2023-11-06T16:23:53.578Z,1.95
2023-11-06T16:26:27.343Z,4.18
2023-11-06T16:28:58.413Z,2.90
2023-11-06T16:33:59.258Z,7.05
2023-11-06T16:36:30.579Z,4.82
2023-11-06T16:39:00.893Z,3.22
2023-11-06T16:41:34.313Z,2.63
2023-11-06T16:44:05.112Z,5.13
2023-11-06T16:46:36.545Z,4.35
2023-11-06T16:49:07.673Z,5.15
2023-11-06T16:54:10.897Z,4.95
2023-11-06T16:56:45.771Z,2.90
2023-11-06T16:59:17.467Z,3.05
2023-11-06T17:01:49.680Z,4.88
2023-11-06T17:04:20.060Z,1.85
2023-11-06T17:06:50.782Z,3.42
2023-11-06T17:09:21.958Z,2.28
2023-11-06T17:14:28.620Z,3.47
2023-11-06T17:16:59.091Z,5.38
2023-11-06T17:19:29.519Z,1.60
2023-11-06T17:22:00.107Z,3.20
2023-11-06T17:24:30.529Z,2.35
2023-11-06T17:27:03.764Z,1.05
2023-11-06T17:29:35.326Z,4.93
2023-11-06T17:32:06.317Z,2.92
2023-11-06T17:34:36.667Z,6.90
2023-11-06T17:37:07.308Z,2.83
2023-11-06T17:39:37.849Z,3.65
2023-11-06T17:42:16.055Z,1.50
2023-11-06T17:44:47.198Z,7.85
2023-11-06T17:47:20.689Z,3.85
2023-11-06T17:49:51.253Z,6.63
2023-11-06T17:52:21.711Z,3.60
2023-11-06T17:54:51.995Z,4.63
2023-11-06T17:57:24.876Z,3.17
2023-11-06T17:59:55.498Z,3.38
2023-11-06T18:02:26.301Z,8.95
2023-11-06T18:04:57.068Z,8.95
2023-11-06T18:07:28.100Z,7.43
2023-11-06T18:09:59.403Z,22.30
2023-11-06T18:12:32.713Z,22.55
2023-11-06T18:15:05.593Z,22.38
2023-11-06T18:17:36.273Z,23.17
2023-11-06T18:20:07.691Z,15.45
2023-11-06T18:22:39.445Z,16.98
2023-11-06T18:25:12.549Z,11.93
2023-11-06T18:27:45.721Z,13.38
2023-11-06T18:30:18.626Z,16.52
2023-11-06T18:32:49.710Z,43.22
2023-11-06T18:37:51.880Z,39.45
2023-11-06T18:40:22.698Z,37.65
2023-11-06T18:42:56.511Z,25.75
2023-11-06T18:45:27.272Z,30.70
2023-11-06T18:47:58.432Z,18.73
2023-11-06T18:50:29.413Z,14.65
2023-11-06T18:53:03.083Z,20.00
2023-11-06T18:55:36.060Z,11.20
2023-11-06T18:58:11.561Z,16.95
2023-11-06T19:00:42.477Z,18.75
2023-11-06T19:03:14.131Z,18.23
2023-11-06T19:05:46.808Z,10.90
2023-11-06T19:08:19.147Z,7.05
2023-11-06T19:10:51.830Z,6.65
2023-11-06T19:13:27.942Z,6.05
2023-11-06T19:15:59.131Z,8.13
2023-11-06T19:18:30.245Z,5.13
2023-11-06T19:23:35.573Z,5.93
2023-11-06T19:26:07.184Z,10.32
2023-11-06T19:28:45.087Z,8.60
2023-11-06T19:31:16.333Z,17.05
2023-11-06T19:33:50.524Z,14.85
2023-11-06T19:36:23.845Z,5.90
2023-11-06T19:39:02.472Z,13.70
2023-11-06T19:41:34.283Z,11.57
2023-11-06T19:44:08.194Z,9.25
2023-11-06T19:46:42.263Z,12.88
2023-11-06T19:49:14.175Z,11.23
2023-11-06T19:51:45.335Z,12.30
2023-11-06T19:56:46.385Z,11.30
2023-11-06T19:59:35.481Z,10.95
2023-11-06T20:02:13.857Z,7.57
2023-11-06T20:04:48.112Z,13.25
2023-11-06T20:07:19.384Z,9.02
2023-11-06T20:12:30.304Z,5.63
2023-11-06T20:15:04.866Z,9.35
2023-11-06T20:17:36.053Z,7.03
2023-11-06T20:20:09.883Z,6.72
2023-11-06T20:22:40.773Z,15.32
2023-11-06T20:25:15.089Z,11.30
2023-11-06T20:27:49.691Z,8.10
2023-11-06T20:30:23.836Z,8.98
2023-11-06T20:32:58.188Z,7.72
2023-11-06T20:35:31.796Z,7.85
2023-11-06T20:38:03.820Z,7.43
2023-11-06T20:40:40.600Z,9.32
2023-11-06T20:43:11.559Z,8.00
2023-11-06T20:48:17.135Z,13.35
2023-11-06T20:50:50.011Z,9.98
2023-11-06T20:53:20.810Z,8.88
2023-11-06T20:55:52.971Z,4.40
2023-11-06T20:58:27.425Z,6.72
2023-11-06T21:01:01.103Z,8.88
2023-11-06T21:03:31.893Z,3.85
2023-11-06T21:06:04.781Z,5.60
2023-11-06T21:08:37.174Z,6.55
2023-11-06T21:11:10.128Z,5.72
2023-11-06T21:13:41.223Z,3.20
2023-11-06T21:18:47.203Z,3.78
2023-11-06T21:21:21.188Z,3.08
2023-11-06T21:23:57.660Z,4.30
2023-11-06T21:26:29.300Z,4.97
2023-11-06T21:29:00.452Z,8.85
2023-11-06T21:31:34.241Z,10.23
2023-11-06T21:34:07.757Z,6.47
2023-11-06T21:36:38.733Z,8.75
2023-11-06T21:39:10.286Z,6.25
2023-11-06T21:41:41.521Z,6.28
2023-11-06T21:44:14.452Z,6.00
2023-11-06T21:46:48.315Z,4.57
2023-11-06T21:49:19.333Z,6.63
2023-11-06T21:54:22.236Z,4.50
2023-11-06T21:56:53.976Z,6.03
2023-11-06T21:59:24.875Z,5.57
2023-11-06T22:02:03.145Z,5.72
2023-11-06T22:04:34.615Z,15.43
2023-11-06T22:07:06.468Z,8.20
2023-11-06T22:09:37.139Z,6.97
2023-11-06T22:12:08.808Z,8.55
2023-11-06T22:14:39.772Z,5.03
2023-11-06T22:19:45.521Z,7.22
2023-11-06T22:22:21.485Z,5.28
2023-11-06T22:24:53.368Z,6.38
2023-11-06T22:27:24.623Z,1.80
2023-11-06T22:29:55.529Z,2.92
2023-11-06T22:35:01.637Z,2.05
2023-11-06T22:37:32.620Z,4.70
2023-11-06T22:42:36.452Z,3.03
2023-11-06T22:45:09.172Z,2.20
2023-11-06T22:47:42.939Z,1.50
2023-11-06T22:50:14.309Z,2.17
2023-11-06T22:52:44.752Z,1.33
2023-11-06T22:55:19.517Z,1.88
2023-11-06T22:57:49.844Z,1.63
2023-11-06T23:00:29.234Z,2.25
2023-11-06T23:03:07.732Z,1.05
2023-11-06T23:05:38.431Z,0.90
2023-11-06T23:08:10.399Z,2.00
2023-11-06T23:10:41.420Z,0.70
2023-11-06T23:13:13.138Z,1.05
2023-11-06T23:15:43.677Z,1.10
2023-11-06T23:18:17.599Z,1.00
2023-11-06T23:20:48.741Z,0.75
2023-11-06T23:25:49.245Z,1.27
2023-11-06T23:28:19.749Z,1.00
2023-11-06T23:30:50.627Z,1.25
2023-11-06T23:33:23.764Z,1.35
2023-11-06T23:35:55.178Z,1.33
2023-11-06T23:38:25.748Z,1.60
2023-11-06T23:40:56.266Z,0.75
2023-11-06T23:43:26.776Z,1.58
2023-11-06T23:45:57.077Z,1.25
2023-11-06T23:48:31.977Z,0.60
2023-11-06T23:51:02.525Z,1.00
2023-11-06T23:53:33.126Z,0.68
2023-11-06T23:56:03.669Z,0.75
2023-11-06T23:58:34.341Z,0.52
